Greenville, Michigan
Current Conditions -  °F | °C
As of 2:54 PM on Sunday 23 Nov 2014 (Local Time) from KY70 Reporting Station
Broken Clouds Broken Clouds  
Wind Chill: 51°   Ceiling: 8000
Heat Index: 51°   Visibility: 10mi
Dew Point: 47°   Wind: 10mph
Humidity: 87%   Direction: 150°SSE
Pressure: 29.65"   Gusts: NA
Location:  43.18°N, 85.25°W
Report Text: KY70 231954Z AUTO 15009KT 10SM SCT018 BKN080 BKN095 10/08 A2965 RMK AO2 T01030083
Loading
Personal Weather Stations






























Interactive Weather Map New forecast layout! Learn more

10-Day Weather Forecast

Advertisements
Track Severe Weather on mobile